Archival Weather

Scottsdale

Scottsdale, Arizona (KSDL)

Report from: Wednesday, December 6, 2023 1:53 AM MST
Current time: Wednesday, April 24, 2024 12:54 PM MST

Current weather – Weather history – Daily summaries
Weather forecast

Temperature13.3°C (55.9°F)
Dew point2.8°C (37.0°F)
Winds Calm
Visibility10 mi. (16.1 km)
Clouds Sky clear
Altimeter30.12 in.Hg (1020 mB)
Relative humidity49 %
Density altitude-267 ft. (-81 m)
Sea-level pressure101.9 kPa (1019 mB, 30.08 in.Hg)
Remarks Fully automated report
Automated weather observing station with precipitation discriminator
Pressure falling more slowly
Flight conditions Visual Meteorological Conditions
Raw dataKSDL 060853Z AUTO 00000KT 10SM CLR 13/03 A3012 RMK AO2 SLP185 T01330028 56005
An error has occurred. This application may no longer respond until reloaded. Reload 🗙